sensor_id;sensor_type;location;lat;lon;timestamp;temperature;humidity
51793;DHT22;37850;53.178;6.376;2022-12-18T00:01:03;-3.30;99.90
51793;DHT22;37850;53.178;6.376;2022-12-18T00:03:35;-3.30;99.90
51793;DHT22;37850;53.178;6.376;2022-12-18T00:06:01;-3.30;99.90
51793;DHT22;37850;53.178;6.376;2022-12-18T00:08:28;-2.80;99.90
51793;DHT22;37850;53.178;6.376;2022-12-18T00:10:54;-3.30;99.90
51793;DHT22;37850;53.178;6.376;2022-12-18T00:13:20;-3.20;99.90
51793;DHT22;37850;53.178;6.376;2022-12-18T00:15:46;-3.30;99.90
51793;DHT22;37850;53.178;6.376;2022-12-18T00:18:11;-3.30;99.90
51793;DHT22;37850;53.178;6.376;2022-12-18T00:20:39;-3.30;99.90
51793;DHT22;37850;53.178;6.376;2022-12-18T00:23:06;-3.30;99.90
51793;DHT22;37850;53.178;6.376;2022-12-18T00:25:33;-3.30;99.90
51793;DHT22;37850;53.178;6.376;2022-12-18T00:28:00;-2.30;99.90
51793;DHT22;37850;53.178;6.376;2022-12-18T00:30:26;-3.40;99.90
51793;DHT22;37850;53.178;6.376;2022-12-18T00:32:52;-3.40;99.90
51793;DHT22;37850;53.178;6.376;2022-12-18T00:35:18;-3.00;99.90
51793;DHT22;37850;53.178;6.376;2022-12-18T00:37:44;-3.40;99.90
51793;DHT22;37850;53.178;6.376;2022-12-18T00:40:10;-3.40;99.90
51793;DHT22;37850;53.178;6.376;2022-12-18T00:42:36;-3.40;99.90
51793;DHT22;37850;53.178;6.376;2022-12-18T00:45:22;-3.50;99.90
51793;DHT22;37850;53.178;6.376;2022-12-18T00:47:48;-3.50;99.90
51793;DHT22;37850;53.178;6.376;2022-12-18T00:50:14;-3.50;99.90
51793;DHT22;37850;53.178;6.376;2022-12-18T00:52:39;-3.50;99.90
51793;DHT22;37850;53.178;6.376;2022-12-18T00:55:06;-3.50;99.90
51793;DHT22;37850;53.178;6.376;2022-12-18T00:57:32;-3.50;99.90
51793;DHT22;37850;53.178;6.376;2022-12-18T00:59:57;-3.50;99.90
51793;DHT22;37850;53.178;6.376;2022-12-18T01:02:23;-2.60;99.90
51793;DHT22;37850;53.178;6.376;2022-12-18T01:04:49;-3.60;99.90
51793;DHT22;37850;53.178;6.376;2022-12-18T01:07:15;-3.60;99.90
51793;DHT22;37850;53.178;6.376;2022-12-18T01:09:40;-2.90;99.90
51793;DHT22;37850;53.178;6.376;2022-12-18T01:12:06;-3.60;99.90
51793;DHT22;37850;53.178;6.376;2022-12-18T01:14:32;-3.60;99.90
51793;DHT22;37850;53.178;6.376;2022-12-18T01:16:58;-3.60;99.90
51793;DHT22;37850;53.178;6.376;2022-12-18T01:19:23;-3.60;99.90
51793;DHT22;37850;53.178;6.376;2022-12-18T01:21:49;-3.60;99.90
51793;DHT22;37850;53.178;6.376;2022-12-18T01:24:15;-3.60;99.90
51793;DHT22;37850;53.178;6.376;2022-12-18T01:26:41;-3.70;99.90
51793;DHT22;37850;53.178;6.376;2022-12-18T01:29:06;-3.20;99.90
51793;DHT22;37850;53.178;6.376;2022-12-18T01:31:33;-3.50;99.90
51793;DHT22;37850;53.178;6.376;2022-12-18T01:34:04;-3.70;99.90
51793;DHT22;37850;53.178;6.376;2022-12-18T01:36:32;-3.70;99.90
51793;DHT22;37850;53.178;6.376;2022-12-18T01:39:00;-3.60;99.90
51793;DHT22;37850;53.178;6.376;2022-12-18T01:41:29;-3.80;99.90
51793;DHT22;37850;53.178;6.376;2022-12-18T01:50:52;-3.90;99.90
51793;DHT22;37850;53.178;6.376;2022-12-18T01:53:14;-3.90;99.90
51793;DHT22;37850;53.178;6.376;2022-12-18T01:55:46;-3.50;99.90
51793;DHT22;37850;53.178;6.376;2022-12-18T01:58:14;-4.00;99.90
51793;DHT22;37850;53.178;6.376;2022-12-18T02:00:40;-4.00;99.90
51793;DHT22;37850;53.178;6.376;2022-12-18T02:03:06;-4.00;99.90
51793;DHT22;37850;53.178;6.376;2022-12-18T02:08:53;-4.00;99.90
51793;DHT22;37850;53.178;6.376;2022-12-18T02:17:06;-4.00;99.90
51793;DHT22;37850;53.178;6.376;2022-12-18T02:22:34;-4.00;99.90
51793;DHT22;37850;53.178;6.376;2022-12-18T02:28:13;-4.10;99.90
51793;DHT22;37850;53.178;6.376;2022-12-18T02:30:42;-4.10;99.90
51793;DHT22;37850;53.178;6.376;2022-12-18T02:33:09;-2.60;99.90
51793;DHT22;37850;53.178;6.376;2022-12-18T02:35:38;-4.20;99.90
51793;DHT22;37850;53.178;6.376;2022-12-18T02:38:06;-4.20;99.90
51793;DHT22;37850;53.178;6.376;2022-12-18T02:40:32;-4.20;99.90
51793;DHT22;37850;53.178;6.376;2022-12-18T02:43:09;-4.20;99.90
51793;DHT22;37850;53.178;6.376;2022-12-18T02:45:47;-4.30;99.90
51793;DHT22;37850;53.178;6.376;2022-12-18T02:48:13;-4.30;99.90
51793;DHT22;37850;53.178;6.376;2022-12-18T02:51:27;-4.30;99.90
51793;DHT22;37850;53.178;6.376;2022-12-18T02:53:52;-4.30;99.90
51793;DHT22;37850;53.178;6.376;2022-12-18T02:56:26;-3.90;99.90
51793;DHT22;37850;53.178;6.376;2022-12-18T03:01:27;-4.40;99.90
51793;DHT22;37850;53.178;6.376;2022-12-18T03:04:00;-4.20;99.90
51793;DHT22;37850;53.178;6.376;2022-12-18T03:06:29;-3.40;99.90
51793;DHT22;37850;53.178;6.376;2022-12-18T03:09:07;-4.50;99.90
51793;DHT22;37850;53.178;6.376;2022-12-18T03:11:39;-4.50;99.90
51793;DHT22;37850;53.178;6.376;2022-12-18T03:14:26;-4.50;99.90
51793;DHT22;37850;53.178;6.376;2022-12-18T03:16:54;-4.60;99.90
51793;DHT22;37850;53.178;6.376;2022-12-18T03:19:26;-4.60;99.90
51793;DHT22;37850;53.178;6.376;2022-12-18T03:21:56;-4.60;99.90
51793;DHT22;37850;53.178;6.376;2022-12-18T03:24:24;-4.60;99.90
51793;DHT22;37850;53.178;6.376;2022-12-18T03:26:57;-3.30;99.90
51793;DHT22;37850;53.178;6.376;2022-12-18T03:32:07;-4.50;99.90
51793;DHT22;37850;53.178;6.376;2022-12-18T03:34:37;-4.60;99.90
51793;DHT22;37850;53.178;6.376;2022-12-18T03:37:05;-4.60;99.90
51793;DHT22;37850;53.178;6.376;2022-12-18T03:39:33;-4.60;99.90
51793;DHT22;37850;53.178;6.376;2022-12-18T03:44:49;-4.70;99.90
51793;DHT22;37850;53.178;6.376;2022-12-18T03:48:02;-4.70;99.90
51793;DHT22;37850;53.178;6.376;2022-12-18T03:55:51;-4.40;99.90
51793;DHT22;37850;53.178;6.376;2022-12-18T03:58:21;-4.70;99.90
51793;DHT22;37850;53.178;6.376;2022-12-18T04:00:51;-4.30;99.90
51793;DHT22;37850;53.178;6.376;2022-12-18T04:03:18;-4.80;99.90
51793;DHT22;37850;53.178;6.376;2022-12-18T04:05:48;-4.80;99.90
51793;DHT22;37850;53.178;6.376;2022-12-18T04:08:16;-4.70;99.90
51793;DHT22;37850;53.178;6.376;2022-12-18T04:10:41;-4.80;99.90
51793;DHT22;37850;53.178;6.376;2022-12-18T04:13:09;-4.80;99.90
51793;DHT22;37850;53.178;6.376;2022-12-18T04:15:35;-4.80;99.90
51793;DHT22;37850;53.178;6.376;2022-12-18T04:18:02;-4.90;99.90
51793;DHT22;37850;53.178;6.376;2022-12-18T04:20:28;-4.90;99.90
51793;DHT22;37850;53.178;6.376;2022-12-18T04:22:53;-4.80;99.90
51793;DHT22;37850;53.178;6.376;2022-12-18T04:25:19;-4.90;99.90
51793;DHT22;37850;53.178;6.376;2022-12-18T04:27:45;-4.70;99.90
51793;DHT22;37850;53.178;6.376;2022-12-18T04:30:11;-4.90;99.90
51793;DHT22;37850;53.178;6.376;2022-12-18T04:32:37;-4.90;99.90
51793;DHT22;37850;53.178;6.376;2022-12-18T04:35:03;-4.90;99.90
51793;DHT22;37850;53.178;6.376;2022-12-18T04:37:30;-4.90;99.90
51793;DHT22;37850;53.178;6.376;2022-12-18T04:39:55;-4.90;99.90
51793;DHT22;37850;53.178;6.376;2022-12-18T04:42:21;-4.90;99.90
51793;DHT22;37850;53.178;6.376;2022-12-18T04:44:47;-3.90;99.90
51793;DHT22;37850;53.178;6.376;2022-12-18T04:47:12;-5.00;99.90
51793;DHT22;37850;53.178;6.376;2022-12-18T04:49:38;-4.80;99.90
51793;DHT22;37850;53.178;6.376;2022-12-18T04:52:04;-5.00;99.90
51793;DHT22;37850;53.178;6.376;2022-12-18T04:54:32;-5.00;99.90
51793;DHT22;37850;53.178;6.376;2022-12-18T04:56:58;-5.00;99.90
51793;DHT22;37850;53.178;6.376;2022-12-18T04:59:24;-5.00;99.90
51793;DHT22;37850;53.178;6.376;2022-12-18T05:01:49;-3.70;99.90
51793;DHT22;37850;53.178;6.376;2022-12-18T05:04:15;-4.50;99.90
51793;DHT22;37850;53.178;6.376;2022-12-18T05:06:41;-5.10;99.90
51793;DHT22;37850;53.178;6.376;2022-12-18T05:09:07;-5.10;99.90
51793;DHT22;37850;53.178;6.376;2022-12-18T05:11:32;-5.10;99.90
51793;DHT22;37850;53.178;6.376;2022-12-18T05:14:01;-5.20;99.90
51793;DHT22;37850;53.178;6.376;2022-12-18T05:16:27;-5.20;99.90
51793;DHT22;37850;53.178;6.376;2022-12-18T05:18:53;-5.20;99.90
51793;DHT22;37850;53.178;6.376;2022-12-18T05:21:19;-4.70;99.90
51793;DHT22;37850;53.178;6.376;2022-12-18T05:23:44;-5.20;99.90
51793;DHT22;37850;53.178;6.376;2022-12-18T05:26:15;-5.30;99.90
51793;DHT22;37850;53.178;6.376;2022-12-18T05:28:41;-5.20;99.90
51793;DHT22;37850;53.178;6.376;2022-12-18T05:31:07;-4.90;99.90
51793;DHT22;37850;53.178;6.376;2022-12-18T05:33:34;-5.30;99.90
51793;DHT22;37850;53.178;6.376;2022-12-18T05:36:05;-5.30;99.90
51793;DHT22;37850;53.178;6.376;2022-12-18T05:38:33;-5.30;99.90
51793;DHT22;37850;53.178;6.376;2022-12-18T05:40:59;-5.30;99.90
51793;DHT22;37850;53.178;6.376;2022-12-18T05:43:26;-5.30;99.90
51793;DHT22;37850;53.178;6.376;2022-12-18T05:45:52;-5.30;99.90
51793;DHT22;37850;53.178;6.376;2022-12-18T05:48:19;-5.40;99.90
51793;DHT22;37850;53.178;6.376;2022-12-18T05:50:46;-5.40;99.90
51793;DHT22;37850;53.178;6.376;2022-12-18T05:53:14;-5.40;99.90
51793;DHT22;37850;53.178;6.376;2022-12-18T05:55:41;-5.40;99.90
51793;DHT22;37850;53.178;6.376;2022-12-18T05:58:08;-5.50;99.90
51793;DHT22;37850;53.178;6.376;2022-12-18T06:00:36;-5.40;99.90
51793;DHT22;37850;53.178;6.376;2022-12-18T06:03:06;-5.40;99.90
51793;DHT22;37850;53.178;6.376;2022-12-18T06:05:50;-5.50;99.90
51793;DHT22;37850;53.178;6.376;2022-12-18T06:08:15;-5.50;99.90
51793;DHT22;37850;53.178;6.376;2022-12-18T06:10:42;-4.70;99.90
51793;DHT22;37850;53.178;6.376;2022-12-18T06:13:08;-5.50;99.90
51793;DHT22;37850;53.178;6.376;2022-12-18T06:15:36;-5.50;99.90
51793;DHT22;37850;53.178;6.376;2022-12-18T06:18:02;-5.50;99.90
51793;DHT22;37850;53.178;6.376;2022-12-18T06:20:28;-5.50;99.90
51793;DHT22;37850;53.178;6.376;2022-12-18T06:22:54;-5.60;99.90
51793;DHT22;37850;53.178;6.376;2022-12-18T06:25:20;-5.60;99.90
51793;DHT22;37850;53.178;6.376;2022-12-18T06:27:47;-4.60;99.90
51793;DHT22;37850;53.178;6.376;2022-12-18T06:30:14;-5.50;99.90
51793;DHT22;37850;53.178;6.376;2022-12-18T06:32:40;-5.60;99.90
51793;DHT22;37850;53.178;6.376;2022-12-18T06:35:07;-5.60;99.90
51793;DHT22;37850;53.178;6.376;2022-12-18T06:37:33;-5.60;99.90
51793;DHT22;37850;53.178;6.376;2022-12-18T06:39:59;-5.60;99.90
51793;DHT22;37850;53.178;6.376;2022-12-18T06:42:26;-4.30;99.90
51793;DHT22;37850;53.178;6.376;2022-12-18T06:44:52;-5.60;99.90
51793;DHT22;37850;53.178;6.376;2022-12-18T06:47:18;-5.60;99.90
51793;DHT22;37850;53.178;6.376;2022-12-18T06:49:44;-5.60;99.90
51793;DHT22;37850;53.178;6.376;2022-12-18T06:52:10;-4.70;99.90
51793;DHT22;37850;53.178;6.376;2022-12-18T06:54:36;-5.70;99.90
51793;DHT22;37850;53.178;6.376;2022-12-18T06:57:02;-5.70;99.90
51793;DHT22;37850;53.178;6.376;2022-12-18T06:59:27;-4.80;99.90
51793;DHT22;37850;53.178;6.376;2022-12-18T07:01:53;-5.70;99.90
51793;DHT22;37850;53.178;6.376;2022-12-18T07:04:19;-5.70;99.90
51793;DHT22;37850;53.178;6.376;2022-12-18T07:06:45;-5.70;99.90
51793;DHT22;37850;53.178;6.376;2022-12-18T07:09:10;-5.70;99.90
51793;DHT22;37850;53.178;6.376;2022-12-18T07:11:36;-5.80;99.90
51793;DHT22;37850;53.178;6.376;2022-12-18T07:14:02;-5.80;99.90
51793;DHT22;37850;53.178;6.376;2022-12-18T07:16:28;-5.80;99.90
51793;DHT22;37850;53.178;6.376;2022-12-18T07:18:57;-5.80;99.90
51793;DHT22;37850;53.178;6.376;2022-12-18T07:21:23;-5.80;99.90
51793;DHT22;37850;53.178;6.376;2022-12-18T07:23:49;-5.70;99.90
51793;DHT22;37850;53.178;6.376;2022-12-18T07:26:17;-5.70;99.90
51793;DHT22;37850;53.178;6.376;2022-12-18T07:28:43;-5.70;99.90
51793;DHT22;37850;53.178;6.376;2022-12-18T07:31:12;-5.70;99.90
51793;DHT22;37850;53.178;6.376;2022-12-18T07:33:38;-5.70;99.90
51793;DHT22;37850;53.178;6.376;2022-12-18T07:36:05;-5.70;99.90
51793;DHT22;37850;53.178;6.376;2022-12-18T07:38:33;-5.70;99.90
51793;DHT22;37850;53.178;6.376;2022-12-18T07:41:04;-5.30;99.90
51793;DHT22;37850;53.178;6.376;2022-12-18T07:43:30;-5.60;99.90
51793;DHT22;37850;53.178;6.376;2022-12-18T07:45:56;-5.60;99.90
51793;DHT22;37850;53.178;6.376;2022-12-18T07:48:21;-5.60;99.90
51793;DHT22;37850;53.178;6.376;2022-12-18T07:50:47;-5.50;99.90
51793;DHT22;37850;53.178;6.376;2022-12-18T07:53:13;-5.60;99.90
51793;DHT22;37850;53.178;6.376;2022-12-18T07:55:40;-5.50;99.90
51793;DHT22;37850;53.178;6.376;2022-12-18T07:58:07;-5.50;99.90
51793;DHT22;37850;53.178;6.376;2022-12-18T08:00:33;-4.40;99.90
51793;DHT22;37850;53.178;6.376;2022-12-18T08:02:59;-5.50;99.90
51793;DHT22;37850;53.178;6.376;2022-12-18T08:05:25;-5.50;99.90
51793;DHT22;37850;53.178;6.376;2022-12-18T08:07:52;-5.30;99.90
51793;DHT22;37850;53.178;6.376;2022-12-18T08:10:18;-5.40;99.90
51793;DHT22;37850;53.178;6.376;2022-12-18T08:12:43;-5.40;99.90
51793;DHT22;37850;53.178;6.376;2022-12-18T08:15:09;-4.10;99.90
51793;DHT22;37850;53.178;6.376;2022-12-18T08:17:36;-6.20;99.90
51793;DHT22;37850;53.178;6.376;2022-12-18T08:20:01;-5.30;99.90
51793;DHT22;37850;53.178;6.376;2022-12-18T08:22:27;-5.30;99.90
51793;DHT22;37850;53.178;6.376;2022-12-18T08:24:53;-5.30;99.90
51793;DHT22;37850;53.178;6.376;2022-12-18T08:27:19;-5.20;99.90
51793;DHT22;37850;53.178;6.376;2022-12-18T08:29:44;-5.20;99.90
51793;DHT22;37850;53.178;6.376;2022-12-18T08:32:10;-5.20;99.90
51793;DHT22;37850;53.178;6.376;2022-12-18T08:34:36;-5.20;99.90
51793;DHT22;37850;53.178;6.376;2022-12-18T08:37:02;-5.10;99.90
51793;DHT22;37850;53.178;6.376;2022-12-18T08:39:27;-5.10;99.90
51793;DHT22;37850;53.178;6.376;2022-12-18T08:41:53;-5.10;99.90
51793;DHT22;37850;53.178;6.376;2022-12-18T08:44:38;-5.10;99.90
51793;DHT22;37850;53.178;6.376;2022-12-18T08:47:06;-5.00;99.90
51793;DHT22;37850;53.178;6.376;2022-12-18T08:49:33;-4.00;99.90
51793;DHT22;37850;53.178;6.376;2022-12-18T08:51:59;-5.00;99.90
51793;DHT22;37850;53.178;6.376;2022-12-18T08:54:25;-4.90;99.90
51793;DHT22;37850;53.178;6.376;2022-12-18T08:56:52;-4.90;99.90
51793;DHT22;37850;53.178;6.376;2022-12-18T08:59:18;-4.80;99.90
51793;DHT22;37850;53.178;6.376;2022-12-18T09:01:45;-4.30;99.90
51793;DHT22;37850;53.178;6.376;2022-12-18T09:04:12;-4.80;99.90
51793;DHT22;37850;53.178;6.376;2022-12-18T09:06:39;-4.70;99.90
51793;DHT22;37850;53.178;6.376;2022-12-18T09:09:10;-4.70;99.90
51793;DHT22;37850;53.178;6.376;2022-12-18T09:11:37;-4.70;99.90
51793;DHT22;37850;53.178;6.376;2022-12-18T09:14:04;-4.60;99.90
51793;DHT22;37850;53.178;6.376;2022-12-18T09:16:31;-4.10;99.90
51793;DHT22;37850;53.178;6.376;2022-12-18T09:18:57;-4.50;99.90
51793;DHT22;37850;53.178;6.376;2022-12-18T09:21:32;-4.50;99.90
51793;DHT22;37850;53.178;6.376;2022-12-18T09:23:58;-4.40;99.90
51793;DHT22;37850;53.178;6.376;2022-12-18T09:26:25;-3.60;99.90
51793;DHT22;37850;53.178;6.376;2022-12-18T09:28:52;-4.40;99.90
51793;DHT22;37850;53.178;6.376;2022-12-18T09:31:20;-4.30;99.90
51793;DHT22;37850;53.178;6.376;2022-12-18T09:33:46;-4.30;99.90
51793;DHT22;37850;53.178;6.376;2022-12-18T09:36:14;-3.40;99.90
51793;DHT22;37850;53.178;6.376;2022-12-18T09:38:40;-4.20;99.90
51793;DHT22;37850;53.178;6.376;2022-12-18T09:44:35;-4.10;99.90
51793;DHT22;37850;53.178;6.376;2022-12-18T09:47:22;-4.10;99.90
51793;DHT22;37850;53.178;6.376;2022-12-18T09:49:58;-4.00;99.90
51793;DHT22;37850;53.178;6.376;2022-12-18T09:52:39;-4.00;99.90
51793;DHT22;37850;53.178;6.376;2022-12-18T09:58:06;-4.00;99.90
51793;DHT22;37850;53.178;6.376;2022-12-18T10:00:37;-2.50;99.90
51793;DHT22;37850;53.178;6.376;2022-12-18T10:03:10;-4.00;99.90
51793;DHT22;37850;53.178;6.376;2022-12-18T10:08:54;-4.00;99.90
51793;DHT22;37850;53.178;6.376;2022-12-18T10:16:59;-3.90;99.90
51793;DHT22;37850;53.178;6.376;2022-12-18T10:25:02;-3.90;99.90
51793;DHT22;37850;53.178;6.376;2022-12-18T10:27:31;-3.90;99.90
51793;DHT22;37850;53.178;6.376;2022-12-18T10:29:57;-3.90;99.90
51793;DHT22;37850;53.178;6.376;2022-12-18T10:32:29;-3.90;99.90
51793;DHT22;37850;53.178;6.376;2022-12-18T10:34:57;-3.90;99.90
51793;DHT22;37850;53.178;6.376;2022-12-18T10:37:26;-3.90;99.90
51793;DHT22;37850;53.178;6.376;2022-12-18T10:40:14;-3.90;99.90
51793;DHT22;37850;53.178;6.376;2022-12-18T10:42:41;-3.90;99.90
51793;DHT22;37850;53.178;6.376;2022-12-18T10:47:48;-3.90;99.90
51793;DHT22;37850;53.178;6.376;2022-12-18T10:50:34;-3.80;99.90
51793;DHT22;37850;53.178;6.376;2022-12-18T10:53:03;-3.80;99.90
51793;DHT22;37850;53.178;6.376;2022-12-18T10:55:35;-3.80;99.90
51793;DHT22;37850;53.178;6.376;2022-12-18T11:06:16;-3.70;99.90
51793;DHT22;37850;53.178;6.376;2022-12-18T11:08:57;-3.70;99.90
51793;DHT22;37850;53.178;6.376;2022-12-18T11:11:24;-3.30;99.90
51793;DHT22;37850;53.178;6.376;2022-12-18T11:17:00;-3.60;99.90
51793;DHT22;37850;53.178;6.376;2022-12-18T11:19:38;-3.60;99.90
51793;DHT22;37850;53.178;6.376;2022-12-18T11:22:25;-3.60;99.90
51793;DHT22;37850;53.178;6.376;2022-12-18T11:25:19;-3.50;99.90
51793;DHT22;37850;53.178;6.376;2022-12-18T11:27:50;-3.40;99.90
51793;DHT22;37850;53.178;6.376;2022-12-18T11:30:21;-3.50;99.90
51793;DHT22;37850;53.178;6.376;2022-12-18T11:32:49;-3.40;99.90
51793;DHT22;37850;53.178;6.376;2022-12-18T11:38:14;-3.40;99.90
51793;DHT22;37850;53.178;6.376;2022-12-18T11:40:45;-3.30;99.90
51793;DHT22;37850;53.178;6.376;2022-12-18T11:43:27;-3.30;99.90
51793;DHT22;37850;53.178;6.376;2022-12-18T11:46:04;-3.30;99.90
51793;DHT22;37850;53.178;6.376;2022-12-18T11:48:49;-3.30;99.90
51793;DHT22;37850;53.178;6.376;2022-12-18T11:51:33;-2.90;99.90
51793;DHT22;37850;53.178;6.376;2022-12-18T11:54:01;-3.20;99.90
51793;DHT22;37850;53.178;6.376;2022-12-18T11:56:36;-3.20;99.90
51793;DHT22;37850;53.178;6.376;2022-12-18T11:59:21;-3.10;99.90
51793;DHT22;37850;53.178;6.376;2022-12-18T12:02:24;-3.10;99.90
51793;DHT22;37850;53.178;6.376;2022-12-18T12:10:00;-2.70;99.90
51793;DHT22;37850;53.178;6.376;2022-12-18T12:15:50;-3.00;99.90
51793;DHT22;37850;53.178;6.376;2022-12-18T12:18:37;-2.90;99.90
51793;DHT22;37850;53.178;6.376;2022-12-18T12:21:49;-2.90;99.90
51793;DHT22;37850;53.178;6.376;2022-12-18T12:24:33;-2.70;99.90
51793;DHT22;37850;53.178;6.376;2022-12-18T12:27:13;-2.80;99.90
51793;DHT22;37850;53.178;6.376;2022-12-18T12:30:06;-2.50;99.90
51793;DHT22;37850;53.178;6.376;2022-12-18T12:38:12;-2.70;99.90
51793;DHT22;37850;53.178;6.376;2022-12-18T12:40:56;-2.70;99.90
51793;DHT22;37850;53.178;6.376;2022-12-18T12:43:44;-2.60;99.90
51793;DHT22;37850;53.178;6.376;2022-12-18T12:46:15;-1.60;99.90
51793;DHT22;37850;53.178;6.376;2022-12-18T12:49:04;-2.60;99.90
51793;DHT22;37850;53.178;6.376;2022-12-18T12:51:41;-2.50;99.90
51793;DHT22;37850;53.178;6.376;2022-12-18T12:54:20;-2.50;99.90
51793;DHT22;37850;53.178;6.376;2022-12-18T12:57:05;-2.40;99.90
51793;DHT22;37850;53.178;6.376;2022-12-18T13:02:18;-2.40;99.90
51793;DHT22;37850;53.178;6.376;2022-12-18T13:04:53;-2.30;99.90
51793;DHT22;37850;53.178;6.376;2022-12-18T13:07:39;-2.30;99.90
51793;DHT22;37850;53.178;6.376;2022-12-18T13:13:07;-2.20;99.90
51793;DHT22;37850;53.178;6.376;2022-12-18T13:15:44;-2.20;99.90
51793;DHT22;37850;53.178;6.376;2022-12-18T13:34:32;-2.00;99.90
51793;DHT22;37850;53.178;6.376;2022-12-18T13:39:56;-1.90;99.90
51793;DHT22;37850;53.178;6.376;2022-12-18T13:42:38;-1.90;99.90
51793;DHT22;37850;53.178;6.376;2022-12-18T13:45:38;-1.10;99.90
51793;DHT22;37850;53.178;6.376;2022-12-18T13:48:04;-1.90;99.90
51793;DHT22;37850;53.178;6.376;2022-12-18T13:50:30;-1.90;99.90
51793;DHT22;37850;53.178;6.376;2022-12-18T13:52:56;-1.80;99.90
51793;DHT22;37850;53.178;6.376;2022-12-18T13:55:23;-1.70;99.90
51793;DHT22;37850;53.178;6.376;2022-12-18T13:57:49;-1.80;99.90
51793;DHT22;37850;53.178;6.376;2022-12-18T14:00:29;-1.80;99.90
51793;DHT22;37850;53.178;6.376;2022-12-18T14:02:56;-1.80;99.90
51793;DHT22;37850;53.178;6.376;2022-12-18T14:07:49;-1.80;99.90
51793;DHT22;37850;53.178;6.376;2022-12-18T14:10:16;-1.70;99.90
51793;DHT22;37850;53.178;6.376;2022-12-18T14:12:47;-1.70;99.90
51793;DHT22;37850;53.178;6.376;2022-12-18T14:18:12;-1.70;99.90
51793;DHT22;37850;53.178;6.376;2022-12-18T14:20:46;-1.70;99.90
51793;DHT22;37850;53.178;6.376;2022-12-18T14:25:56;-1.70;99.90
51793;DHT22;37850;53.178;6.376;2022-12-18T14:28:22;-1.70;99.90
51793;DHT22;37850;53.178;6.376;2022-12-18T14:30:48;-1.70;99.90
51793;DHT22;37850;53.178;6.376;2022-12-18T14:33:20;-1.70;99.90
51793;DHT22;37850;53.178;6.376;2022-12-18T14:38:48;-1.70;99.90
51793;DHT22;37850;53.178;6.376;2022-12-18T14:41:16;-1.70;99.90
51793;DHT22;37850;53.178;6.376;2022-12-18T14:43:44;-1.70;99.90
51793;DHT22;37850;53.178;6.376;2022-12-18T14:49:25;-1.70;99.90
51793;DHT22;37850;53.178;6.376;2022-12-18T14:52:01;-1.80;99.90
51793;DHT22;37850;53.178;6.376;2022-12-18T14:54:28;-1.70;99.90
51793;DHT22;37850;53.178;6.376;2022-12-18T14:57:06;-1.70;99.90
51793;DHT22;37850;53.178;6.376;2022-12-18T14:59:37;-1.70;99.90
51793;DHT22;37850;53.178;6.376;2022-12-18T15:02:19;-0.40;99.90
51793;DHT22;37850;53.178;6.376;2022-12-18T15:04:46;-1.70;99.90
51793;DHT22;37850;53.178;6.376;2022-12-18T15:12:40;-1.70;99.90
51793;DHT22;37850;53.178;6.376;2022-12-18T15:20:43;-1.60;99.90
51793;DHT22;37850;53.178;6.376;2022-12-18T15:26:02;-1.70;99.90
51793;DHT22;37850;53.178;6.376;2022-12-18T15:33:41;-1.70;99.90
51793;DHT22;37850;53.178;6.376;2022-12-18T15:36:13;-1.70;99.90
51793;DHT22;37850;53.178;6.376;2022-12-18T15:38:40;-1.70;99.90
51793;DHT22;37850;53.178;6.376;2022-12-18T15:41:10;-1.10;99.90
51793;DHT22;37850;53.178;6.376;2022-12-18T15:43:39;-1.10;99.90
51793;DHT22;37850;53.178;6.376;2022-12-18T15:48:49;-1.70;99.90
51793;DHT22;37850;53.178;6.376;2022-12-18T15:53:51;-0.40;99.90
51793;DHT22;37850;53.178;6.376;2022-12-18T15:56:18;-1.70;99.90
51793;DHT22;37850;53.178;6.376;2022-12-18T15:59:12;-1.70;99.90
51793;DHT22;37850;53.178;6.376;2022-12-18T16:01:39;-1.70;99.90
51793;DHT22;37850;53.178;6.376;2022-12-18T16:04:10;-1.70;99.90
51793;DHT22;37850;53.178;6.376;2022-12-18T16:06:38;-1.70;99.90
51793;DHT22;37850;53.178;6.376;2022-12-18T16:09:05;-1.90;99.90
51793;DHT22;37850;53.178;6.376;2022-12-18T16:11:33;-1.40;99.90
51793;DHT22;37850;53.178;6.376;2022-12-18T16:14:24;-1.70;99.90
51793;DHT22;37850;53.178;6.376;2022-12-18T16:16:53;-1.70;99.90
51793;DHT22;37850;53.178;6.376;2022-12-18T16:19:20;-1.10;99.90
51793;DHT22;37850;53.178;6.376;2022-12-18T16:21:47;-1.70;99.90
51793;DHT22;37850;53.178;6.376;2022-12-18T16:24:15;-1.70;99.90
51793;DHT22;37850;53.178;6.376;2022-12-18T16:26:42;-1.70;99.90
51793;DHT22;37850;53.178;6.376;2022-12-18T16:29:08;-1.80;99.90
51793;DHT22;37850;53.178;6.376;2022-12-18T16:31:34;-1.70;99.90
51793;DHT22;37850;53.178;6.376;2022-12-18T16:34:21;-1.70;99.90
51793;DHT22;37850;53.178;6.376;2022-12-18T16:36:48;-1.70;99.90
51793;DHT22;37850;53.178;6.376;2022-12-18T16:39:15;-1.70;99.90
51793;DHT22;37850;53.178;6.376;2022-12-18T16:41:42;-0.50;99.90
51793;DHT22;37850;53.178;6.376;2022-12-18T16:44:08;-1.70;99.90
51793;DHT22;37850;53.178;6.376;2022-12-18T16:46:33;-1.40;99.90
51793;DHT22;37850;53.178;6.376;2022-12-18T16:48:59;-1.60;99.90
51793;DHT22;37850;53.178;6.376;2022-12-18T16:51:28;-1.70;99.90
51793;DHT22;37850;53.178;6.376;2022-12-18T16:53:55;-1.70;99.90
51793;DHT22;37850;53.178;6.376;2022-12-18T16:56:21;-1.70;99.90
51793;DHT22;37850;53.178;6.376;2022-12-18T16:58:54;-1.70;99.90
51793;DHT22;37850;53.178;6.376;2022-12-18T17:01:21;-1.70;99.90
51793;DHT22;37850;53.178;6.376;2022-12-18T17:03:52;-1.70;99.90
51793;DHT22;37850;53.178;6.376;2022-12-18T17:06:18;-1.70;99.90
51793;DHT22;37850;53.178;6.376;2022-12-18T17:08:44;-1.70;99.90
51793;DHT22;37850;53.178;6.376;2022-12-18T17:11:09;-1.70;99.90
51793;DHT22;37850;53.178;6.376;2022-12-18T17:13:39;-1.00;99.90
51793;DHT22;37850;53.178;6.376;2022-12-18T17:16:06;-1.70;99.90
51793;DHT22;37850;53.178;6.376;2022-12-18T17:18:33;-1.70;99.90
51793;DHT22;37850;53.178;6.376;2022-12-18T17:21:04;-1.60;99.90
51793;DHT22;37850;53.178;6.376;2022-12-18T17:23:31;-1.60;99.90
51793;DHT22;37850;53.178;6.376;2022-12-18T17:25:58;-1.60;99.90
51793;DHT22;37850;53.178;6.376;2022-12-18T17:28:27;-1.60;99.90
51793;DHT22;37850;53.178;6.376;2022-12-18T17:30:54;-1.60;99.90
51793;DHT22;37850;53.178;6.376;2022-12-18T17:33:20;-1.60;99.90
51793;DHT22;37850;53.178;6.376;2022-12-18T17:35:47;-1.60;99.90
51793;DHT22;37850;53.178;6.376;2022-12-18T17:38:13;-1.50;99.90
51793;DHT22;37850;53.178;6.376;2022-12-18T17:40:39;-1.30;99.90
51793;DHT22;37850;53.178;6.376;2022-12-18T17:43:06;-1.50;99.90
51793;DHT22;37850;53.178;6.376;2022-12-18T17:45:37;-1.50;99.90
51793;DHT22;37850;53.178;6.376;2022-12-18T17:48:04;-1.50;99.90
51793;DHT22;37850;53.178;6.376;2022-12-18T17:50:32;-1.50;99.90
51793;DHT22;37850;53.178;6.376;2022-12-18T17:52:58;-1.50;99.90
51793;DHT22;37850;53.178;6.376;2022-12-18T17:55:25;-1.40;99.90
51793;DHT22;37850;53.178;6.376;2022-12-18T17:57:51;-0.70;99.90
51793;DHT22;37850;53.178;6.376;2022-12-18T18:00:17;-1.40;99.90
51793;DHT22;37850;53.178;6.376;2022-12-18T18:02:43;-1.40;99.90
51793;DHT22;37850;53.178;6.376;2022-12-18T18:05:09;-1.40;99.90
51793;DHT22;37850;53.178;6.376;2022-12-18T18:07:39;-1.20;99.90
51793;DHT22;37850;53.178;6.376;2022-12-18T18:10:06;-1.30;99.90
51793;DHT22;37850;53.178;6.376;2022-12-18T18:12:33;-1.30;99.90
51793;DHT22;37850;53.178;6.376;2022-12-18T18:15:17;-0.80;99.90